Wetterdaten: aktuell Montag, 21.05.2018 23:50
Datum Zeit Temp. Feuchte Luftdruck Regen Wind Richtung Richtung Sonnenschein UV Solar Windchill Windben
21.05.2018 23:50 13.2 C 88 % 1012.8 hPa 0.0 mm 0.8 km/h O 88 0 min 0.0 UV-I 0.0 W/m 13.2 C 3.2 km/h
21.05.2018 23:40 13.4 C 88 % 1012.8 hPa 0.0 mm 3.2 km/h O 88 0 min 0.0 UV-I 0.0 W/m 13.4 C 6.4 km/h
21.05.2018 23:30 13.8 C 87 % 1012.8 hPa 0.0 mm 1.7 km/h O-NO 72 0 min 0.0 UV-I 0.0 W/m 13.8 C 4.8 km/h
21.05.2018 23:20 13.6 C 88 % 1012.8 hPa 0.0 mm 4.0 km/h O-NO 66 0 min 0.0 UV-I 0.0 W/m 13.6 C 6.4 km/h
21.05.2018 23:10 14.3 C 85 % 1012.9 hPa 0.0 mm 2.4 km/h O-NO 73 0 min 0.0 UV-I 0.0 W/m 14.3 C 6.4 km/h
21.05.2018 23:00 14.4 C 85 % 1012.9 hPa 0.0 mm 2.1 km/h O-NO 76 0 min 0.0 UV-I 0.0 W/m 14.4 C 4.8 km/h
21.05.2018 22:50 14.4 C 86 % 1012.9 hPa 0.0 mm 2.4 km/h O-NO 68 0 min 0.0 UV-I 0.0 W/m 14.4 C 4.8 km/h
21.05.2018 22:40 15.1 C 84 % 1012.9 hPa 0.0 mm 0.8 km/h W-NW 299 0 min 0.0 UV-I 0.0 W/m 15.1 C 1.6 km/h
21.05.2018 22:30 15.2 C 83 % 1012.9 hPa 0.0 mm 0.5 km/h W-NW 299 0 min 0.0 UV-I 0.0 W/m 15.2 C 3.2 km/h
21.05.2018 22:20 15.6 C 82 % 1012.8 hPa 0.0 mm 1.7 km/h NW 305 0 min 0.0 UV-I 0.0 W/m 15.6 C 6.4 km/h
21.05.2018 22:10 15.9 C 78 % 1012.8 hPa 0.0 mm 1.5 km/h N-NW 333 0 min 0.0 UV-I 0.0 W/m 15.9 C 4.8 km/h
21.05.2018 22:00 16.3 C 74 % 1012.7 hPa 0.0 mm 0.3 km/h O-NO 58 0 min 0.0 UV-I 0.0 W/m 16.3 C 1.6 km/h
21.05.2018 21:50 16.4 C 74 % 1012.8 hPa 0.0 mm 0.3 km/h O-NO 58 0 min 0.0 UV-I 0.0 W/m 16.4 C 1.6 km/h
21.05.2018 21:40 16.9 C 72 % 1012.8 hPa 0.0 mm 0.6 km/h O-NO 58 0 min 0.0 UV-I 0.0 W/m 16.9 C 3.2 km/h
21.05.2018 21:30 17.1 C 72 % 1012.8 hPa 0.0 mm 1.4 km/h O-NO 58 0 min 0.0 UV-I 0.0 W/m 17.1 C 4.8 km/h
21.05.2018 21:20 17.7 C 67 % 1012.8 hPa 0.0 mm 1.5 km/h W-SW 248 0 min 0.0 UV-I 0.0 W/m 17.7 C 4.8 km/h
21.05.2018 21:10 17.6 C 69 % 1012.8 hPa 0.0 mm 1.1 km/h W-SW 248 0 min 0.0 UV-I 0.0 W/m 17.6 C 3.2 km/h
21.05.2018 21:00 17.7 C 68 % 1012.8 hPa 0.0 mm 1.7 km/h W 268 0 min 0.0 UV-I 0.0 W/m 17.7 C 3.2 km/h
21.05.2018 20:50 17.9 C 67 % 1012.6 hPa 0.0 mm 1.7 km/h W 268 0 min 0.0 UV-I 7.0 W/m 17.9 C 4.8 km/h
21.05.2018 20:40 17.6 C 68 % 1012.6 hPa 0.0 mm 2.5 km/h NO 51 10 min 0.0 UV-I 30.0 W/m 17.6 C 11.3 km/h
21.05.2018 20:30 17.8 C 65 % 1012.6 hPa 0.0 mm 3.7 km/h W-NW 285 0 min 0.0 UV-I 39.0 W/m 17.8 C 12.9 km/h
21.05.2018 20:20 17.6 C 68 % 1012.7 hPa 0.0 mm 4.1 km/h S-SW 209 0 min 0.0 UV-I 33.0 W/m 17.6 C 9.7 km/h
21.05.2018 20:10 17.8 C 68 % 1012.8 hPa 0.0 mm 3.9 km/h W 260 0 min 0.0 UV-I 53.0 W/m 17.8 C 9.7 km/h
21.05.2018 20:00 18.3 C 61 % 1012.9 hPa 0.0 mm 1.5 km/h O 82 0 min 0.0 UV-I 58.0 W/m 18.3 C 4.8 km/h
21.05.2018 19:50 18.6 C 60 % 1012.8 hPa 0.0 mm 3.8 km/h NW 314 0 min 0.0 UV-I 77.0 W/m 18.6 C 12.9 km/h
21.05.2018 19:40 18.6 C 60 % 1012.8 hPa 0.0 mm 9.4 km/h NO 56 0 min 0.0 UV-I 105.0 W/m 17.3 C 24.1 km/h
21.05.2018 19:30 18.8 C 61 % 1012.8 hPa 0.0 mm 14.2 km/h NO 56 10 min 0.0 UV-I 130.0 W/m 16.0 C 24.1 km/h
21.05.2018 19:20 19.7 C 56 % 1012.7 hPa 0.0 mm 8.8 km/h N-NO 15 0 min 0.0 UV-I 95.0 W/m 18.7 C 22.5 km/h
21.05.2018 19:10 20.3 C 50 % 1012.6 hPa 0.0 mm 9.6 km/h O 87 0 min 0.0 UV-I 79.0 W/m 19.1 C 19.3 km/h
21.05.2018 19:00 21.2 C 48 % 1012.6 hPa 0.0 mm 14.9 km/h O-SO 118 0 min 0.0 UV-I 86.0 W/m 18.7 C 24.1 km/h
21.05.2018 18:50 23.2 C 44 % 1012.3 hPa 0.0 mm 9.0 km/h O-NO 67 10 min 0.5 UV-I 352.0 W/m 22.4 C 20.9 km/h
21.05.2018 18:40 23.9 C 42 % 1011.8 hPa 0.0 mm 8.1 km/h N 360 10 min 1.0 UV-I 443.0 W/m 23.4 C 16.1 km/h
21.05.2018 18:30 23.7 C 40 % 1011.6 hPa 0.0 mm 9.5 km/h N-NW 341 10 min 1.2 UV-I 422.0 W/m 22.8 C 19.3 km/h
21.05.2018 18:20 23.8 C 41 % 1011.5 hPa 0.0 mm 12.0 km/h NW 317 10 min 1.3 UV-I 436.0 W/m 22.4 C 22.5 km/h
21.05.2018 18:10 23.9 C 43 % 1011.7 hPa 0.0 mm 9.0 km/h W-NW 302 10 min 1.3 UV-I 392.0 W/m 23.2 C 22.5 km/h
21.05.2018 18:00 24.2 C 44 % 1011.7 hPa 0.0 mm 10.8 km/h W-NW 282 10 min 1.5 UV-I 424.0 W/m 23.1 C 20.9 km/h
21.05.2018 17:50 24.3 C 44 % 1011.8 hPa 0.0 mm 11.3 km/h W-NW 299 10 min 1.8 UV-I 501.0 W/m 23.1 C 20.9 km/h
21.05.2018 17:40 24.0 C 49 % 1011.8 hPa 0.0 mm 11.3 km/h N-NW 330 10 min 1.9 UV-I 506.0 W/m 22.8 C 20.9 km/h
21.05.2018 17:30 23.7 C 48 % 1011.7 hPa 0.0 mm 10.1 km/h W-NW 291 10 min 2.2 UV-I 631.0 W/m 22.7 C 20.9 km/h
21.05.2018 17:20 23.9 C 45 % 1011.9 hPa 0.0 mm 11.7 km/h N 355 10 min 1.8 UV-I 322.0 W/m 22.6 C 24.1 km/h
21.05.2018 17:10 24.8 C 46 % 1012.0 hPa 0.0 mm 11.9 km/h NW 311 10 min 2.5 UV-I 661.0 W/m 23.6 C 20.9 km/h
21.05.2018 17:00 24.8 C 44 % 1012.0 hPa 0.0 mm 12.2 km/h NW 304 10 min 2.8 UV-I 712.0 W/m 23.5 C 24.1 km/h
21.05.2018 16:50 25.2 C 40 % 1012.0 hPa 0.0 mm 6.2 km/h N-NO 26 10 min 3.0 UV-I 682.0 W/m 25.2 C 16.1 km/h
21.05.2018 16:40 25.3 C 40 % 1012.0 hPa 0.0 mm 4.9 km/h S-SO 158 10 min 3.4 UV-I 722.0 W/m 25.3 C 14.5 km/h
21.05.2018 16:30 25.3 C 38 % 1012.2 hPa 0.0 mm 4.4 km/h W-NW 302 10 min 3.6 UV-I 701.0 W/m 25.3 C 11.3 km/h
21.05.2018 16:20 24.7 C 38 % 1012.2 hPa 0.0 mm 2.3 km/h W-NW 299 10 min 3.9 UV-I 714.0 W/m 24.7 C 8.0 km/h
21.05.2018 16:10 25.1 C 36 % 1012.4 hPa 0.0 mm 4.5 km/h SW 232 10 min 4.1 UV-I 715.0 W/m 25.1 C 11.3 km/h
21.05.2018 16:00 25.1 C 41 % 1012.5 hPa 0.0 mm 5.6 km/h W-SW 239 10 min 4.3 UV-I 719.0 W/m 25.1 C 16.1 km/h
21.05.2018 15:50 24.8 C 37 % 1012.6 hPa 0.0 mm 3.4 km/h W 278 10 min 4.5 UV-I 731.0 W/m 24.8 C 11.3 km/h
21.05.2018 15:40 24.3 C 38 % 1012.8 hPa 0.0 mm 2.8 km/h O-NO 69 10 min 4.7 UV-I 745.0 W/m 24.3 C 9.7 km/h
21.05.2018 15:30 24.3 C 42 % 1012.8 hPa 0.0 mm 3.9 km/h N-NO 13 10 min 4.9 UV-I 765.0 W/m 24.3 C 9.7 km/h
21.05.2018 15:20 24.7 C 37 % 1013.1 hPa 0.0 mm 6.4 km/h W 271 10 min 5.1 UV-I 775.0 W/m 24.7 C 16.1 km/h
21.05.2018 15:10 24.9 C 42 % 1013.1 hPa 0.0 mm 3.8 km/h W-SW 248 10 min 5.3 UV-I 793.0 W/m 24.9 C 8.0 km/h
21.05.2018 15:00 23.8 C 40 % 1013.2 hPa 0.0 mm 2.9 km/h W 261 10 min 5.5 UV-I 807.0 W/m 23.8 C 6.4 km/h
21.05.2018 14:50 23.9 C 37 % 1013.3 hPa 0.0 mm 3.0 km/h W 275 10 min 5.7 UV-I 819.0 W/m 23.9 C 6.4 km/h
21.05.2018 14:40 23.8 C 43 % 1013.5 hPa 0.0 mm 2.8 km/h NO 52 10 min 5.8 UV-I 830.0 W/m 23.8 C 6.4 km/h
21.05.2018 14:30 23.8 C 39 % 1013.5 hPa 0.0 mm 3.9 km/h NW 311 10 min 5.9 UV-I 835.0 W/m 23.8 C 8.0 km/h
21.05.2018 14:20 23.4 C 42 % 1013.6 hPa 0.0 mm 3.1 km/h N 351 10 min 6.0 UV-I 844.0 W/m 23.4 C 8.0 km/h
21.05.2018 14:10 23.2 C 43 % 1013.7 hPa 0.0 mm 3.8 km/h N-NO 32 10 min 6.1 UV-I 847.0 W/m 23.2 C 9.7 km/h
21.05.2018 14:00 23.4 C 48 % 1013.7 hPa 0.0 mm 3.6 km/h NO 40 10 min 6.2 UV-I 853.0 W/m 23.4 C 11.3 km/h
21.05.2018 13:50 23.6 C 46 % 1013.7 hPa 0.0 mm 4.0 km/h N 5 10 min 6.3 UV-I 863.0 W/m 23.6 C 9.7 km/h
21.05.2018 13:40 22.7 C 49 % 1013.7 hPa 0.0 mm 3.4 km/h O 94 10 min 6.3 UV-I 867.0 W/m 22.7 C 8.0 km/h
21.05.2018 13:30 22.9 C 47 % 1013.9 hPa 0.0 mm 3.2 km/h W-SW 250 10 min 6.4 UV-I 870.0 W/m 22.9 C 9.7 km/h
21.05.2018 13:20 22.1 C 50 % 1014.0 hPa 0.0 mm 5.2 km/h NW 326 10 min 6.4 UV-I 868.0 W/m 22.1 C 12.9 km/h
21.05.2018 13:10 21.6 C 55 % 1014.1 hPa 0.0 mm 3.5 km/h NW 306 10 min 6.4 UV-I 865.0 W/m 21.6 C 9.7 km/h
21.05.2018 13:00 22.3 C 52 % 1014.3 hPa 0.0 mm 5.0 km/h NW 306 10 min 6.3 UV-I 861.0 W/m 22.3 C 12.9 km/h
21.05.2018 12:50 21.0 C 59 % 1014.4 hPa 0.0 mm 3.4 km/h O-SO 103 10 min 6.2 UV-I 865.0 W/m 21.0 C 4.8 km/h
21.05.2018 12:40 21.2 C 59 % 1014.5 hPa 0.0 mm 4.9 km/h S-SW 194 10 min 4.7 UV-I 519.0 W/m 21.2 C 12.9 km/h
21.05.2018 12:30 20.0 C 62 % 1014.7 hPa 0.0 mm 3.0 km/h SW 234 10 min 4.9 UV-I 777.0 W/m 20.0 C 8.0 km/h
21.05.2018 12:20 20.8 C 60 % 1014.7 hPa 0.0 mm 2.8 km/h S-SW 204 10 min 5.4 UV-I 506.0 W/m 20.8 C 8.0 km/h
21.05.2018 12:10 19.8 C 62 % 1014.6 hPa 0.0 mm 3.5 km/h O 96 10 min 4.3 UV-I 610.0 W/m 19.8 C 6.4 km/h
21.05.2018 12:00 19.9 C 59 % 1014.8 hPa 0.0 mm 3.8 km/h O-NO 60 10 min 5.2 UV-I 717.0 W/m 19.9 C 11.3 km/h
21.05.2018 11:50 20.8 C 61 % 1014.9 hPa 0.0 mm 2.1 km/h SW 229 10 min 6.0 UV-I 997.0 W/m 20.8 C 6.4 km/h
21.05.2018 11:40 19.8 C 68 % 1014.9 hPa 0.0 mm 2.6 km/h O-NO 60 10 min 5.7 UV-I 895.0 W/m 19.8 C 6.4 km/h
21.05.2018 11:30 19.2 C 68 % 1015.0 hPa 0.0 mm 2.2 km/h O-NO 66 10 min 5.3 UV-I 846.0 W/m 19.2 C 4.8 km/h
21.05.2018 11:20 20.1 C 61 % 1015.0 hPa 0.0 mm 4.0 km/h W-SW 239 10 min 5.4 UV-I 840.0 W/m 20.1 C 9.7 km/h
21.05.2018 11:10 19.2 C 68 % 1015.0 hPa 0.0 mm 5.6 km/h W-NW 295 10 min 4.8 UV-I 812.0 W/m 19.2 C 12.9 km/h
21.05.2018 11:00 18.8 C 70 % 1015.2 hPa 0.0 mm 4.9 km/h NW 316 10 min 4.6 UV-I 777.0 W/m 18.8 C 11.3 km/h
21.05.2018 10:50 18.2 C 69 % 1015.2 hPa 0.0 mm 4.2 km/h W-NW 302 0 min 3.0 UV-I 369.0 W/m 18.2 C 9.7 km/h
21.05.2018 10:40 18.3 C 72 % 1015.2 hPa 0.0 mm 3.2 km/h W-SW 252 10 min 3.8 UV-I 652.0 W/m 18.3 C 9.7 km/h
21.05.2018 10:30 18.2 C 75 % 1015.4 hPa 0.0 mm 3.7 km/h SW 225 10 min 3.9 UV-I 731.0 W/m 18.2 C 9.7 km/h
21.05.2018 10:20 17.2 C 76 % 1015.5 hPa 0.0 mm 2.4 km/h N 360 10 min 3.7 UV-I 705.0 W/m 17.2 C 4.8 km/h
21.05.2018 10:10 17.4 C 74 % 1015.6 hPa 0.0 mm 2.9 km/h W 274 10 min 3.5 UV-I 726.0 W/m 17.4 C 9.7 km/h
21.05.2018 10:00 16.9 C 76 % 1015.8 hPa 0.0 mm 3.0 km/h W-SW 249 0 min 2.4 UV-I 332.0 W/m 16.9 C 6.4 km/h
21.05.2018 09:50 15.7 C 80 % 1016.0 hPa 0.0 mm 1.9 km/h W-NW 299 10 min 2.6 UV-I 441.0 W/m 15.7 C 4.8 km/h
21.05.2018 09:40 15.9 C 79 % 1016.1 hPa 0.0 mm 1.7 km/h N-NW 336 10 min 2.1 UV-I 339.0 W/m 15.9 C 4.8 km/h
21.05.2018 09:30 15.7 C 82 % 1016.1 hPa 0.0 mm 2.3 km/h O 86 10 min 2.1 UV-I 420.0 W/m 15.7 C 4.8 km/h
21.05.2018 09:20 15.1 C 83 % 1016.0 hPa 0.0 mm 2.6 km/h N-NW 333 10 min 2.2 UV-I 534.0 W/m 15.1 C 6.4 km/h
21.05.2018 09:10 14.8 C 85 % 1016.2 hPa 0.0 mm 2.6 km/h NW 322 10 min 1.9 UV-I 508.0 W/m 14.8 C 4.8 km/h
21.05.2018 09:00 14.1 C 87 % 1016.3 hPa 0.0 mm 2.5 km/h N-NO 19 10 min 1.7 UV-I 466.0 W/m 14.1 C 6.4 km/h
21.05.2018 08:50 13.9 C 87 % 1016.3 hPa 0.0 mm 1.7 km/h N-NO 30 0 min 1.3 UV-I 244.0 W/m 13.9 C 4.8 km/h
21.05.2018 08:40 13.8 C 88 % 1016.4 hPa 0.0 mm 2.3 km/h O 80 10 min 1.3 UV-I 396.0 W/m 13.8 C 6.4 km/h
21.05.2018 08:30 13.4 C 90 % 1016.4 hPa 0.0 mm 0.6 km/h NO 44 10 min 1.1 UV-I 345.0 W/m 13.4 C 3.2 km/h
21.05.2018 08:20 12.8 C 91 % 1016.4 hPa 0.0 mm 1.4 km/h N-NW 344 10 min 1.0 UV-I 329.0 W/m 12.8 C 3.2 km/h
21.05.2018 08:10 12.4 C 92 % 1016.5 hPa 0.0 mm 0.7 km/h NO 51 10 min 0.8 UV-I 272.0 W/m 12.4 C 3.2 km/h
21.05.2018 08:00 12.1 C 94 % 1016.4 hPa 0.0 mm 1.6 km/h NO 51 10 min 0.6 UV-I 234.0 W/m 12.1 C 3.2 km/h
21.05.2018 07:50 11.8 C 94 % 1016.4 hPa 0.0 mm 1.0 km/h NO 52 10 min 0.6 UV-I 253.0 W/m 11.8 C 3.2 km/h
21.05.2018 07:40 11.4 C 95 % 1016.3 hPa 0.0 mm 0.1 km/h O 80 10 min 0.0 UV-I 221.0 W/m 11.4 C 1.6 km/h
21.05.2018 07:30 10.8 C 95 % 1016.3 hPa 0.0 mm 0.1 km/h O 80 0 min 0.0 UV-I 113.0 W/m 10.8 C 1.6 km/h
21.05.2018 07:20 10.7 C 96 % 1016.3 hPa 0.0 mm 0.4 km/h O 80 10 min 0.0 UV-I 165.0 W/m 10.7 C 1.6 km/h
21.05.2018 07:10 10.3 C 96 % 1016.3 hPa 0.0 mm 0.3 km/h O 80 0 min 0.0 UV-I 105.0 W/m 10.3 C 1.6 km/h
21.05.2018 07:00 9.7 C 96 % 1016.3 hPa 0.0 mm 2.5 km/h O 80 10 min 0.0 UV-I 118.0 W/m 9.7 C 4.8 km/h
21.05.2018 06:50 9.1 C 96 % 1016.2 hPa 0.0 mm 3.7 km/h O 82 10 min 0.0 UV-I 93.0 W/m 9.1 C 6.4 km/h
21.05.2018 06:40 9.2 C 96 % 1016.2 hPa 0.0 mm 1.2 km/h O 83 0 min 0.0 UV-I 44.0 W/m 9.2 C 3.2 km/h
21.05.2018 06:30 8.8 C 96 % 1016.1 hPa 0.0 mm 1.6 km/h O 83 0 min 0.0 UV-I 26.0 W/m 8.8 C 4.8 km/h
21.05.2018 06:20 8.8 C 96 % 1016.1 hPa 0.0 mm 1.7 km/h O 83 0 min 0.0 UV-I 19.0 W/m 8.8 C 3.2 km/h
21.05.2018 06:10 9.2 C 96 % 1016.2 hPa 0.0 mm 0.2 km/h O 83 0 min 0.0 UV-I 14.0 W/m 9.2 C 1.6 km/h
21.05.2018 06:00 8.8 C 96 % 1016.3 hPa 0.0 mm 1.2 km/h O 83 0 min 0.0 UV-I 11.0 W/m 8.8 C 3.2 km/h
21.05.2018 05:50 9.1 C 96 % 1016.1 hPa 0.0 mm 2.0 km/h O 83 0 min 0.0 UV-I 5.0 W/m 9.1 C 4.8 km/h
21.05.2018 05:40 8.9 C 95 % 1016.1 hPa 0.0 mm 2.2 km/h O 83 0 min 0.0 UV-I 0.0 W/m 8.9 C 4.8 km/h
21.05.2018 05:30 9.1 C 96 % 1016.0 hPa 0.0 mm 1.4 km/h O 83 0 min 0.0 UV-I 0.0 W/m 9.1 C 3.2 km/h
21.05.2018 05:20 9.2 C 96 % 1016.0 hPa 0.0 mm 0.1 km/h O 83 0 min 0.0 UV-I 0.0 W/m 9.2 C 1.6 km/h
21.05.2018 05:10 9.2 C 96 % 1015.9 hPa 0.0 mm 0.5 km/h O 83 0 min 0.0 UV-I 0.0 W/m 9.2 C 1.6 km/h
21.05.2018 05:00 9.1 C 96 % 1016.1 hPa 0.0 mm 1.3 km/h O 83 0 min 0.0 UV-I 0.0 W/m 9.1 C 3.2 km/h
21.05.2018 04:50 8.9 C 95 % 1016.0 hPa 0.0 mm 3.0 km/h O 83 0 min 0.0 UV-I 0.0 W/m 8.9 C 4.8 km/h
21.05.2018 04:40 9.5 C 95 % 1016.1 hPa 0.0 mm 0.5 km/h O 85 0 min 0.0 UV-I 0.0 W/m 9.5 C 1.6 km/h
21.05.2018 04:30 9.4 C 96 % 1016.1 hPa 0.0 mm 1.2 km/h O 85 0 min 0.0 UV-I 0.0 W/m 9.4 C 4.8 km/h
21.05.2018 04:20 9.2 C 95 % 1016.1 hPa 0.0 mm 3.4 km/h O 85 0 min 0.0 UV-I 0.0 W/m 9.2 C 6.4 km/h
21.05.2018 04:10 9.3 C 95 % 1016.0 hPa 0.0 mm 3.5 km/h O 84 0 min 0.0 UV-I 0.0 W/m 9.3 C 4.8 km/h
21.05.2018 04:00 9.4 C 94 % 1015.9 hPa 0.0 mm 1.5 km/h O 101 0 min 0.0 UV-I 0.0 W/m 9.4 C 4.8 km/h
21.05.2018 03:50 9.8 C 95 % 1016.0 hPa 0.0 mm 0.2 km/h O 101 0 min 0.0 UV-I 0.0 W/m 9.8 C 1.6 km/h
21.05.2018 03:40 9.8 C 95 % 1015.9 hPa 0.0 mm 1.3 km/h O 101 0 min 0.0 UV-I 0.0 W/m 9.8 C 4.8 km/h
21.05.2018 03:30 9.9 C 95 % 1015.6 hPa 0.0 mm 1.3 km/h O 101 0 min 0.0 UV-I 0.0 W/m 9.9 C 4.8 km/h
21.05.2018 03:20 10.0 C 95 % 1015.7 hPa 0.0 mm 0.0 km/h O 101 0 min 0.0 UV-I 0.0 W/m 10.0 C 0.0 km/h
21.05.2018 03:10 10.2 C 94 % 1015.5 hPa 0.0 mm 0.4 km/h O 101 0 min 0.0 UV-I 0.0 W/m 10.2 C 3.2 km/h
21.05.2018 03:00 10.4 C 94 % 1015.5 hPa 0.0 mm 1.2 km/h O 101 0 min 0.0 UV-I 0.0 W/m 10.4 C 3.2 km/h
21.05.2018 02:50 10.6 C 94 % 1015.4 hPa 0.0 mm 1.3 km/h O 101 0 min 0.0 UV-I 0.0 W/m 10.6 C 4.8 km/h
21.05.2018 02:40 10.7 C 93 % 1015.4 hPa 0.0 mm 0.6 km/h O 101 0 min 0.0 UV-I 0.0 W/m 10.7 C 3.2 km/h
21.05.2018 02:30 10.8 C 94 % 1015.4 hPa 0.0 mm 0.5 km/h O 101 0 min 0.0 UV-I 0.0 W/m 10.8 C 3.2 km/h
21.05.2018 02:20 10.9 C 93 % 1015.4 hPa 0.0 mm 0.2 km/h O 101 0 min 0.0 UV-I 0.0 W/m 10.9 C 1.6 km/h
21.05.2018 02:10 11.0 C 94 % 1015.4 hPa 0.0 mm 1.3 km/h O 101 0 min 0.0 UV-I 0.0 W/m 11.0 C 3.2 km/h
21.05.2018 02:00 11.1 C 93 % 1015.3 hPa 0.0 mm 1.4 km/h O 101 0 min 0.0 UV-I 0.0 W/m 11.1 C 3.2 km/h
21.05.2018 01:50 11.6 C 93 % 1015.4 hPa 0.0 mm 1.1 km/h O 101 0 min 0.0 UV-I 0.0 W/m 11.6 C 3.2 km/h
21.05.2018 01:40 11.7 C 92 % 1015.6 hPa 0.0 mm 1.2 km/h O 101 0 min 0.0 UV-I 0.0 W/m 11.7 C 4.8 km/h
21.05.2018 01:30 12.2 C 92 % 1015.6 hPa 0.0 mm 1.7 km/h O 101 0 min 0.0 UV-I 0.0 W/m 12.2 C 3.2 km/h
21.05.2018 01:20 11.9 C 93 % 1015.6 hPa 0.0 mm 1.2 km/h O 101 0 min 0.0 UV-I 0.0 W/m 11.9 C 3.2 km/h
21.05.2018 01:10 11.8 C 92 % 1015.5 hPa 0.0 mm 0.7 km/h O 101 0 min 0.0 UV-I 0.0 W/m 11.8 C 3.2 km/h
21.05.2018 01:00 11.9 C 92 % 1015.6 hPa 0.0 mm 1.1 km/h O 101 0 min 0.0 UV-I 0.0 W/m 11.9 C 3.2 km/h
21.05.2018 00:50 12.2 C 91 % 1015.6 hPa 0.0 mm 0.5 km/h O-SO 102 0 min 0.0 UV-I 0.0 W/m 12.2 C 3.2 km/h
21.05.2018 00:40 12.4 C 91 % 1015.7 hPa 0.0 mm 0.2 km/h S 178 0 min 0.0 UV-I 0.0 W/m 12.4 C 1.6 km/h
21.05.2018 00:30 12.6 C 90 % 1015.6 hPa 0.0 mm 1.6 km/h S 178 0 min 0.0 UV-I 0.0 W/m 12.6 C 4.8 km/h
21.05.2018 00:20 12.7 C 90 % 1015.6 hPa 0.0 mm 1.3 km/h O 90 0 min 0.0 UV-I 0.0 W/m 12.7 C 3.2 km/h
21.05.2018 00:10 12.7 C 90 % 1015.5 hPa 0.0 mm 2.5 km/h O 90 0 min 0.0 UV-I 0.0 W/m 12.7 C 4.8 km/h
21.05.2018 00:00 12.7 C 90 % 1015.5 hPa 0.0 mm 4.6 km/h O 86 0 min 0.0 UV-I 0.0 W/m 12.7 C 6.4 km/h
_ Min-Zeit 06:00 16:10 18:20 - 03:20 - - - - - 06:00 03:20
Minimum _ 8.8 C 36 % 1011.5 hPa - 0.0 km/h - - - - - 8.8 C 0.0 km/h
_ Max-Zeit 16:30 04:30 08:10 00:00 19:00 - - 06:50 13:10 11:50 16:30 17:00
Maximum _ 25.3 C 96 % 1016.5 hPa 0.0 mm 14.9 km/h
O-SO
- - 10 min 6.4 UV-I 997.0 W/m 25.3 C 24.1 km/h
W-NW
Durchschnitt _ 16.5 C 73 % 1014.4 hPa #0.0 mm 3.3 km/h O - #11:40 h 3.7 UV-I 484.4 W/m 16.4 C 7.9 km/h